Time;durP1;ratioP1;P1;durP2;ratioP2;P2;SDS_P1;SDS_P2;PMS_P1;PMS_P2;Temp;Humidity;BMP_temperature;BMP_pressure;BME280_temperature;BME280_humidity;BME280_pressure;Samples;Min_cycle;Max_cycle;Signal;HPM_P1;HPM_P2
2022/05/27 00:01:06;;;;;;;8.40;7.60;;;;;;;22.25;95.34;99760.75;5010795;28;20240;-68
2022/05/27 00:03:33;;;;;;;8.20;7.70;;;;;;;22.07;95.26;99734.19;5010374;28;20203;-67
2022/05/27 00:06:00;;;;;;;7.77;7.27;;;;;;;22.19;95.64;99766.44;5010908;28;20222;-68
2022/05/27 00:08:29;;;;;;;8.20;7.40;;;;;;;22.17;94.89;99757.84;5008859;28;20227;-68
2022/05/27 00:10:56;;;;;;;10.57;7.47;;;;;;;22.19;94.55;99759.44;5008605;28;20258;-68
2022/05/27 00:13:23;;;;;;;8.60;7.87;;;;;;;22.19;93.76;99758.59;5008627;28;20208;-68
2022/05/27 00:15:50;;;;;;;8.63;7.60;;;;;;;22.16;93.36;99751.00;5009590;28;20659;-68
2022/05/27 00:18:17;;;;;;;7.17;6.67;;;;;;;22.14;93.33;99739.81;5010611;28;20197;-68
2022/05/27 00:20:44;;;;;;;7.90;7.20;;;;;;;22.11;92.67;99737.41;5010915;28;20219;-66
2022/05/27 00:23:11;;;;;;;7.63;6.97;;;;;;;22.21;93.44;99756.69;5009626;28;20200;-68
2022/05/27 00:25:40;;;;;;;7.73;6.97;;;;;;;22.23;92.68;99749.63;5010537;28;20730;-68
2022/05/27 00:28:08;;;;;;;7.30;6.70;;;;;;;22.23;92.01;99749.63;5007467;28;20194;-68
2022/05/27 00:30:36;;;;;;;8.20;7.60;;;;;;;22.15;92.20;99744.09;5010698;28;20210;-68
2022/05/27 00:33:03;;;;;;;8.50;7.73;;;;;;;22.21;91.97;99752.31;5010335;28;20669;-68
2022/05/27 00:35:31;;;;;;;8.53;7.73;;;;;;;22.24;91.24;99751.25;5009789;28;20199;-68
2022/05/27 00:37:58;;;;;;;7.57;6.87;;;;;;;22.24;91.61;99740.81;5010084;28;20200;-68
2022/05/27 00:40:26;;;;;;;7.80;7.30;;;;;;;22.22;91.07;99753.16;5008353;28;20216;-68
2022/05/27 00:42:54;;;;;;;7.37;6.97;;;;;;;22.24;91.46;99748.66;5004285;28;20540;-67
2022/05/27 00:45:24;;;;;;;9.00;7.57;;;;;;;22.20;90.95;99744.59;5007757;28;20248;-68
2022/05/27 00:47:54;;;;;;;7.57;7.00;;;;;;;22.13;91.30;99744.22;5005131;28;20206;-68
2022/05/27 00:50:26;;;;;;;7.80;7.30;;;;;;;22.12;91.41;99741.69;5007881;28;20687;-69
2022/05/27 00:52:54;;;;;;;7.77;7.17;;;;;;;22.08;91.66;99743.69;5008848;28;21145;-68
2022/05/27 00:55:24;;;;;;;7.47;6.90;;;;;;;22.00;91.89;99737.38;5006090;28;20200;-68
2022/05/27 00:57:56;;;;;;;7.73;7.03;;;;;;;22.07;91.24;99743.81;5009690;28;20203;-68
2022/05/27 01:00:25;;;;;;;7.83;7.13;;;;;;;22.03;91.55;99747.59;5010112;28;20198;-68
2022/05/27 01:02:54;;;;;;;8.80;7.20;;;;;;;21.98;91.59;99743.53;5009189;28;20204;-69
2022/05/27 01:05:23;;;;;;;8.53;7.67;;;;;;;22.03;91.81;99758.03;5007229;28;20208;-68
2022/05/27 01:07:53;;;;;;;9.27;7.43;;;;;;;22.03;90.71;99763.25;5010226;28;20250;-68
2022/05/27 01:10:20;;;;;;;8.33;7.70;;;;;;;22.08;90.90;99761.13;5009900;28;20622;-69
2022/05/27 01:13:03;;;;;;;7.23;6.83;;;;;;;22.12;90.77;99757.38;5011015;28;20229;-68
2022/05/27 01:15:40;;;;;;;7.77;7.17;;;;;;;22.19;90.69;99758.59;5006938;28;20215;-68
2022/05/27 01:20:18;;;;;;;8.07;7.27;;;;;;;22.21;90.73;99756.69;5009984;28;20205;-68
2022/05/27 01:21:16;;;;;;;7.63;7.13;;;;;;;22.22;90.99;99758.38;5010150;28;20195;-68
2022/05/27 01:24:26;;;;;;;7.90;7.30;;;;;;;22.27;90.37;99761.47;5011104;28;20208;-69
2022/05/27 01:27:30;;;;;;;7.00;6.40;;;;;;;22.32;89.97;99754.16;5003137;28;20227;-69
2022/05/27 01:30:22;;;;;;;8.17;7.57;;;;;;;22.37;89.62;99752.88;4970706;28;20254;-69
2022/05/27 01:33:07;;;;;;;8.63;7.03;;;;;;;22.34;89.96;99757.47;5008308;28;20208;-70
2022/05/27 01:35:45;;;;;;;8.23;7.30;;;;;;;22.28;89.57;99763.16;4997103;28;20218;-69
2022/05/27 01:38:19;;;;;;;8.80;8.13;;;;;;;22.19;90.26;99756.00;5008929;28;20211;-70
2022/05/27 01:40:56;;;;;;;8.03;7.47;;;;;;;22.07;91.09;99775.16;5008972;28;20585;-69
2022/05/27 01:43:30;;;;;;;9.00;8.20;;;;;;;22.10;91.00;99767.09;5010106;28;20591;-69
2022/05/27 01:46:07;;;;;;;8.00;7.40;;;;;;;22.04;91.12;99754.47;5010213;28;20220;-68
2022/05/27 01:48:41;;;;;;;8.10;7.60;;;;;;;22.12;90.89;99762.59;5009706;28;20229;-62
2022/05/27 01:51:13;;;;;;;8.73;8.07;;;;;;;22.14;90.75;99761.53;5009925;28;20208;-61
2022/05/27 01:53:46;;;;;;;8.30;7.53;;;;;;;22.17;90.42;99755.25;5009957;28;20211;-61
2022/05/27 01:56:19;;;;;;;8.03;7.33;;;;;;;22.18;90.36;99751.69;5009820;28;20216;-61
2022/05/27 01:58:51;;;;;;;8.13;7.63;;;;;;;22.19;89.91;99767.28;5009779;28;20208;-61
2022/05/27 02:01:24;;;;;;;7.50;6.90;;;;;;;22.18;90.28;99764.75;5008867;28;20199;-61
2022/05/27 02:03:54;;;;;;;7.67;7.17;;;;;;;22.14;89.88;99761.53;5010367;28;20905;-60
2022/05/27 02:06:27;;;;;;;7.83;6.63;;;;;;;22.15;89.65;99767.59;5009830;28;20226;-61
2022/05/27 02:08:57;;;;;;;7.13;6.70;;;;;;;22.14;89.54;99758.09;5010282;28;20228;-61
2022/05/27 02:11:25;;;;;;;7.60;7.03;;;;;;;22.12;89.59;99758.22;5009948;28;20579;-62
2022/05/27 02:13:59;;;;;;;7.77;7.33;;;;;;;22.09;89.51;99760.22;5009900;28;20232;-61
2022/05/27 02:16:32;;;;;;;8.43;7.63;;;;;;;22.09;89.53;99768.03;5009595;28;20249;-61
2022/05/27 02:19:04;;;;;;;7.77;7.13;;;;;;;22.08;89.15;99767.19;5010430;28;20211;-61
2022/05/27 02:21:39;;;;;;;8.17;7.50;;;;;;;22.02;88.85;99766.81;5009453;28;20695;-61
2022/05/27 02:24:11;;;;;;;8.70;7.53;;;;;;;21.96;89.37;99779.38;5014813;28;20683;-61
2022/05/27 02:26:44;;;;;;;7.80;7.13;;;;;;;21.91;89.47;99765.78;5013247;28;20227;-61
2022/05/27 02:29:15;;;;;;;9.83;8.90;;;;;;;21.86;90.20;99767.88;5011740;28;20210;-61
2022/05/27 02:31:47;;;;;;;7.73;7.13;;;;;;;21.86;90.74;99767.88;5012108;28;20694;-61
2022/05/27 02:37:15;;;;;;;9.07;8.27;;;;;;;21.70;91.12;99756.00;5010722;28;20211;-61
2022/05/27 02:39:42;;;;;;;9.80;8.13;;;;;;;21.62;92.22;99764.34;5012935;28;20214;-61
2022/05/27 02:42:16;;;;;;;8.30;7.70;;;;;;;21.48;92.89;99767.09;5013377;28;20691;-61
2022/05/27 02:44:52;;;;;;;8.53;7.73;;;;;;;21.34;94.41;99759.38;5012180;28;20744;-61
2022/05/27 02:47:28;;;;;;;9.23;7.40;;;;;;;21.21;95.50;99758.56;5011679;28;20226;-61
2022/05/27 02:50:02;;;;;;;8.50;7.80;;;;;;;20.98;96.78;99751.41;5012759;28;20209;-61
2022/05/27 02:52:37;;;;;;;8.80;8.00;;;;;;;20.97;96.84;99761.00;5013007;28;20203;-61
2022/05/27 02:55:12;;;;;;;8.67;7.93;;;;;;;20.97;97.08;99765.41;5013051;28;20251;-61
2022/05/27 02:57:44;;;;;;;9.93;8.23;;;;;;;21.02;97.00;99768.53;5012513;28;20667;-61
2022/05/27 03:00:14;;;;;;;8.57;7.97;;;;;;;21.03;97.07;99770.19;5012427;28;20598;-61
2022/05/27 03:02:43;;;;;;;8.23;7.53;;;;;;;21.04;96.78;99771.84;5012857;28;20202;-61
2022/05/27 03:05:11;;;;;;;7.80;7.13;;;;;;;21.03;97.07;99775.41;5012675;28;20236;-61
2022/05/27 03:07:48;;;;;;;8.17;7.53;;;;;;;21.02;97.56;99763.31;5010067;28;21352;-61
2022/05/27 03:10:24;;;;;;;8.30;7.50;;;;;;;21.00;97.18;99767.81;4992861;28;20198;-60
2022/05/27 03:13:06;;;;;;;8.77;7.93;;;;;;;21.00;97.10;99765.19;4993194;28;20587;-61
2022/05/27 03:15:41;;;;;;;9.00;8.13;;;;;;;20.93;97.96;99769.97;4990614;28;20194;-61
2022/05/27 03:18:22;;;;;;;10.80;8.30;;;;;;;20.92;98.00;99763.94;4992684;28;20209;-61
2022/05/27 03:20:51;;;;;;;22.13;9.20;;;;;;;20.92;98.34;99773.50;4992813;28;20205;-61
2022/05/27 03:23:41;;;;;;;13.77;7.33;;;;;;;20.81;98.30;99758.59;4993047;28;20199;-60
2022/05/27 03:26:17;;;;;;;8.77;7.17;;;;;;;20.82;98.19;99765.47;4992572;28;20203;-60
2022/05/27 03:28:55;;;;;;;7.80;7.00;;;;;;;20.86;98.38;99779.97;4992796;28;20256;-60
2022/05/27 03:31:30;;;;;;;7.73;7.23;;;;;;;20.89;97.90;99777.16;4989907;28;20215;-61
2022/05/27 03:34:08;;;;;;;8.67;7.53;;;;;;;20.98;97.37;99778.31;4991492;28;20206;-61
2022/05/27 03:36:40;;;;;;;7.37;6.67;;;;;;;20.91;97.20;99757.03;4988990;28;20202;-60
2022/05/27 03:39:15;;;;;;;7.93;7.30;;;;;;;21.04;97.21;99783.13;4992412;28;20203;-60
2022/05/27 03:41:48;;;;;;;11.53;7.53;;;;;;;21.04;96.97;99771.84;4989506;28;20210;-61
2022/05/27 03:44:19;;;;;;;10.13;7.70;;;;;;;21.03;96.32;99770.19;4992010;28;20206;-62
2022/05/27 03:46:50;;;;;;;8.50;7.93;;;;;;;21.07;96.41;99774.25;4992009;28;20233;-60
2022/05/27 03:49:18;;;;;;;8.50;7.70;;;;;;;21.08;95.97;99775.94;4991816;28;20199;-61
2022/05/27 03:51:52;;;;;;;8.27;7.67;;;;;;;21.12;96.65;99769.59;4992621;28;20675;-61
2022/05/27 03:54:21;;;;;;;8.00;7.17;;;;;;;21.18;95.45;99775.25;4991806;28;20202;-61
2022/05/27 03:56:49;;;;;;;9.10;7.20;;;;;;;21.24;95.42;99774.81;4992128;28;20205;-61
2022/05/27 03:59:17;;;;;;;7.63;6.90;;;;;;;21.32;95.40;99771.69;4991576;28;20583;-61
2022/05/27 04:01:47;;;;;;;8.47;7.67;;;;;;;21.30;95.02;99763.97;4989905;28;20217;-61
2022/05/27 04:04:17;;;;;;;8.70;7.90;;;;;;;21.44;95.15;99773.47;4991949;28;20214;-60
2022/05/27 04:06:47;;;;;;;7.03;6.53;;;;;;;21.59;94.74;99779.38;4988961;28;20228;-61
2022/05/27 04:09:14;;;;;;;7.43;6.80;;;;;;;21.66;94.09;99781.47;5006505;28;20222;-61
2022/05/27 04:11:41;;;;;;;7.47;6.97;;;;;;;21.77;94.10;99775.50;5011215;28;20203;-61
2022/05/27 04:14:08;;;;;;;7.77;7.17;;;;;;;21.90;92.72;99774.59;5011313;28;20315;-61
2022/05/27 04:16:36;;;;;;;8.83;6.83;;;;;;;21.99;92.37;99773.09;5011359;28;20559;-61
2022/05/27 04:19:03;;;;;;;14.97;7.90;;;;;;;22.11;92.02;99779.19;5012865;28;20684;-61
2022/05/27 04:21:30;;;;;;;9.53;7.53;;;;;;;22.22;91.59;99779.28;5010583;28;20215;-62
2022/05/27 04:23:59;;;;;;;8.70;7.77;;;;;;;22.36;91.04;99776.47;5011030;28;20204;-61
2022/05/27 04:26:26;;;;;;;7.30;6.80;;;;;;;22.44;90.58;99764.53;5011443;28;20574;-61
2022/05/27 04:28:53;;;;;;;7.37;6.77;;;;;;;22.58;90.37;99766.16;5009795;28;20719;-61
2022/05/27 04:31:20;;;;;;;10.00;7.10;;;;;;;22.72;89.55;99776.44;5009402;28;20298;-61
2022/05/27 04:33:48;;;;;;;7.83;7.33;;;;;;;22.69;88.95;99758.38;5010048;28;20209;-60
2022/05/27 04:36:15;;;;;;;7.43;6.73;;;;;;;22.89;89.07;99770.78;5010260;28;20201;-60
2022/05/27 04:38:44;;;;;;;7.73;6.90;;;;;;;23.01;89.21;99775.09;5010624;28;20212;-61
2022/05/27 04:41:12;;;;;;;8.07;7.37;;;;;;;23.20;88.12;99773.72;5010282;28;20209;-61
2022/05/27 04:43:39;;;;;;;8.23;6.93;;;;;;;23.31;87.96;99768.47;5011014;28;20575;-61
2022/05/27 04:46:06;;;;;;;12.50;6.53;;;;;;;23.46;88.22;99780.41;5008483;28;20201;-60
2022/05/27 04:48:33;;;;;;;7.57;6.83;;;;;;;23.60;87.14;99772.34;5010728;28;20661;-61
2022/05/27 04:51:00;;;;;;;7.67;7.13;;;;;;;23.72;85.63;99778.38;5010458;28;20201;-60
2022/05/27 04:53:27;;;;;;;8.93;6.97;;;;;;;23.86;84.23;99773.75;5009469;28;20205;-61
2022/05/27 04:55:54;;;;;;;6.77;6.00;;;;;;;24.08;83.66;99778.09;5010589;28;20204;-61
2022/05/27 04:58:22;;;;;;;6.93;6.37;;;;;;;24.24;82.73;99782.97;5010813;28;20694;-60
2022/05/27 05:00:49;;;;;;;7.17;6.63;;;;;;;24.37;81.98;99778.41;5010540;28;20338;-60
2022/05/27 05:03:17;;;;;;;7.27;6.57;;;;;;;24.51;80.00;99776.34;5010258;28;20193;-60
2022/05/27 05:05:44;;;;;;;7.00;6.07;;;;;;;24.68;77.64;99769.72;5010661;28;20216;-61
2022/05/27 05:08:24;;;;;;;7.07;6.57;;;;;;;24.78;76.06;99768.00;5002724;28;20229;-61
2022/05/27 05:10:51;;;;;;;7.90;6.30;;;;;;;24.80;76.77;99768.72;4989754;28;20202;-61
2022/05/27 05:13:17;;;;;;;7.03;6.43;;;;;;;24.89;76.94;99769.75;4989341;28;20202;-61
2022/05/27 05:15:46;;;;;;;6.03;5.53;;;;;;;24.94;77.27;99768.41;4990523;28;20607;-61
2022/05/27 05:18:13;;;;;;;8.10;7.47;;;;;;;24.98;76.46;99761.94;4990035;28;20545;-61
2022/05/27 05:20:40;;;;;;;7.37;6.60;;;;;;;25.14;76.01;99768.56;4990991;28;20206;-61
2022/05/27 05:23:07;;;;;;;5.63;5.23;;;;;;;25.34;75.96;99765.03;4988623;28;20207;-62
2022/05/27 05:25:34;;;;;;;6.17;5.73;;;;;;;25.55;72.55;99761.47;4989922;28;20575;-61
2022/05/27 05:28:01;;;;;;;5.63;5.33;;;;;;;25.70;71.08;99772.44;4989245;28;20214;-61
2022/05/27 05:30:29;;;;;;;5.87;5.47;;;;;;;25.82;68.90;99773.97;4988608;28;20226;-61
2022/05/27 05:32:57;;;;;;;5.70;5.27;;;;;;;25.81;69.04;99772.34;4990022;28;20980;-60
2022/05/27 05:35:24;;;;;;;5.90;5.60;;;;;;;25.85;68.75;99771.09;4983921;28;20207;-60
2022/05/27 05:37:51;;;;;;;4.70;4.50;;;;;;;25.89;70.92;99772.47;4988708;28;20599;-60
2022/05/27 05:40:18;;;;;;;5.93;5.43;;;;;;;26.11;68.84;99777.50;4989730;28;20210;-61
2022/05/27 05:42:47;;;;;;;5.97;5.47;;;;;;;26.29;66.41;99759.31;4988815;28;20211;-61
2022/05/27 05:45:16;;;;;;;6.20;5.70;;;;;;;26.36;66.77;99755.19;4988174;28;20690;-61
2022/05/27 05:47:43;;;;;;;4.43;4.20;;;;;;;26.63;65.99;99771.06;4986507;28;20222;-61
2022/05/27 05:50:14;;;;;;;4.60;4.33;;;;;;;26.79;66.54;99767.03;4987990;28;20199;-61
2022/05/27 05:52:41;;;;;;;4.67;4.37;;;;;;;26.99;63.79;99777.44;4988091;28;20240;-61
2022/05/27 05:55:09;;;;;;;4.63;4.23;;;;;;;27.11;63.19;99772.84;4987868;28;20206;-62
2022/05/27 05:57:39;;;;;;;6.43;5.03;;;;;;;27.22;61.79;99775.31;4989445;28;20213;-67
2022/05/27 06:00:08;;;;;;;4.43;4.23;;;;;;;27.29;63.71;99770.31;4992959;28;20215;-62
2022/05/27 06:02:35;;;;;;;5.30;4.90;;;;;;;27.41;61.62;99770.00;4992963;28;20223;-61
2022/05/27 06:05:03;;;;;;;5.30;4.90;;;;;;;27.46;63.09;99772.22;4992955;28;20582;-62
2022/05/27 06:07:32;;;;;;;4.30;4.00;;;;;;;27.56;62.42;99767.75;4994799;28;20220;-61
2022/05/27 06:09:59;;;;;;;4.97;4.57;;;;;;;27.70;60.51;99769.06;5011537;28;20210;-61
2022/05/27 06:12:26;;;;;;;4.70;4.40;;;;;;;27.82;61.78;99767.91;5010708;28;20198;-61
2022/05/27 06:14:54;;;;;;;4.33;4.00;;;;;;;28.01;61.81;99771.25;5011130;28;20209;-61
2022/05/27 06:17:21;;;;;;;5.13;4.70;;;;;;;28.14;60.16;99765.66;5009833;28;20248;-61
2022/05/27 06:19:48;;;;;;;6.70;4.37;;;;;;;28.36;60.52;99759.13;5009596;28;20218;-61
2022/05/27 06:22:15;;;;;;;4.17;3.77;;;;;;;28.50;56.93;99763.84;5006549;28;20582;-61
2022/05/27 06:24:43;;;;;;;4.27;3.87;;;;;;;28.74;60.50;99750.06;5007530;28;20622;-61
2022/05/27 06:27:10;;;;;;;6.23;4.07;;;;;;;29.00;55.52;99759.69;5007670;28;20214;-61
2022/05/27 06:35:07;;;;;;;9.03;4.40;;;;;;;29.35;53.47;99750.84;5004921;28;20248;-60
2022/05/27 06:37:35;;;;;;;4.27;3.87;;;;;;;29.51;54.18;99755.38;5008214;28;20205;-61
2022/05/27 06:40:04;;;;;;;3.77;3.57;;;;;;;29.51;52.90;99752.72;5006355;28;20702;-61
2022/05/27 06:42:31;;;;;;;4.30;4.00;;;;;;;29.52;52.62;99749.09;5007338;28;20582;-61
2022/05/27 06:44:57;;;;;;;6.57;3.50;;;;;;;29.62;52.36;99752.44;5008083;28;20578;-61
2022/05/27 06:47:25;;;;;;;48.43;7.43;;;;;;;29.72;52.84;99753.16;5007729;28;20294;-61
2022/05/27 06:49:52;;;;;;;3.30;3.10;;;;;;;29.84;52.65;99745.78;5008885;28;20681;-61
2022/05/27 06:52:19;;;;;;;5.60;3.73;;;;;;;29.86;55.46;99744.63;5007981;28;20201;-61
2022/05/27 06:54:45;;;;;;;3.13;2.93;;;;;;;30.04;52.00;99736.59;5007463;28;20198;-61
2022/05/27 06:57:14;;;;;;;3.60;3.40;;;;;;;30.18;52.30;99741.22;5004611;28;20203;-61
2022/05/27 06:59:42;;;;;;;4.20;3.40;;;;;;;30.33;51.69;99738.78;5009156;28;20210;-61
2022/05/27 07:02:09;;;;;;;6.53;3.87;;;;;;;30.34;50.50;99737.78;5007963;28;20209;-60
2022/05/27 07:04:36;;;;;;;3.60;3.30;;;;;;;30.36;51.13;99743.75;5003950;28;20233;-61
2022/05/27 07:07:05;;;;;;;2.83;2.63;;;;;;;30.59;50.80;99726.25;5009564;28;20214;-61
2022/05/27 07:09:35;;;;;;;3.47;3.27;;;;;;;30.82;51.13;99737.81;5009403;28;20299;-61
2022/05/27 07:12:05;;;;;;;3.63;3.43;;;;;;;31.12;51.39;99733.63;5010666;28;20202;-61
2022/05/27 07:14:34;;;;;;;4.47;3.05;;;;;;;31.37;49.31;99737.06;5010814;28;20225;-61
2022/05/27 07:17:01;;;;;;;2.42;2.33;;;;;;;31.43;46.93;99725.78;5010886;28;20209;-61
2022/05/27 07:19:28;;;;;;;26.65;13.45;;;;;;;31.50;45.48;99732.06;5011002;28;20772;-61
2022/05/27 07:21:56;;;;;;;5.97;4.55;;;;;;;31.50;45.48;99726.78;5009393;28;20201;-61
2022/05/27 07:24:24;;;;;;;3.90;3.70;;;;;;;31.40;44.00;99710.22;5009978;28;20297;-61
2022/05/27 07:26:51;;;;;;;2.75;2.55;;;;;;;31.41;41.39;99727.75;5009300;28;20217;-62
2022/05/27 07:29:18;;;;;;;3.63;2.42;;;;;;;31.43;43.39;99709.88;5008516;28;20229;-61
2022/05/27 07:31:47;;;;;;;2.03;1.92;;;;;;;31.70;43.16;99722.69;5009883;28;20213;-62
2022/05/27 07:34:13;;;;;;;2.60;1.98;;;;;;;31.82;43.72;99721.31;5010162;28;20716;-61
2022/05/27 07:36:40;;;;;;;6.15;1.98;;;;;;;31.98;44.95;99718.56;5010019;28;20217;-62
2022/05/27 07:39:07;;;;;;;2.40;2.20;;;;;;;32.05;39.23;99724.84;5010559;28;20206;-61
2022/05/27 07:41:35;;;;;;;1.48;1.48;;;;;;;32.14;39.90;99715.84;5010074;28;20206;-62
2022/05/27 07:44:03;;;;;;;2.22;2.13;;;;;;;32.39;40.11;99713.81;5009322;28;20205;-62
2022/05/27 07:46:32;;;;;;;1.70;1.60;;;;;;;32.38;41.61;99711.34;5010462;28;20594;-60
2022/05/27 07:49:00;;;;;;;2.10;2.00;;;;;;;32.59;40.18;99708.88;5010965;28;20937;-62
2022/05/27 07:51:27;;;;;;;2.13;2.03;;;;;;;32.76;41.17;99710.38;5010417;28;20221;-62
2022/05/27 07:53:54;;;;;;;2.05;1.60;;;;;;;32.82;40.00;99704.34;5009694;28;20593;-62
2022/05/27 07:56:21;;;;;;;2.53;1.83;;;;;;;33.05;40.43;99705.09;5011297;28;20574;-62
2022/05/27 07:58:48;;;;;;;1.88;1.77;;;;;;;33.05;39.27;99704.28;5010532;28;20209;-62
2022/05/27 08:01:15;;;;;;;1.55;1.45;;;;;;;32.92;38.10;99704.09;5009980;28;20202;-62
2022/05/27 08:03:42;;;;;;;7.15;2.03;;;;;;;33.12;40.89;99700.72;5009341;28;20225;-61
2022/05/27 08:06:11;;;;;;;2.75;2.20;;;;;;;33.15;41.75;99699.56;5008923;28;20208;-62
2022/05/27 08:08:39;;;;;;;2.70;1.85;;;;;;;33.28;41.90;99699.72;5010619;28;20236;-62
2022/05/27 08:11:07;;;;;;;1.38;1.20;;;;;;;33.42;35.88;99700.69;5009470;28;20593;-62
2022/05/27 08:13:34;;;;;;;2.05;1.60;;;;;;;33.43;37.16;99697.88;5009597;28;20209;-61
2022/05/27 08:16:01;;;;;;;1.40;1.30;;;;;;;33.32;36.08;99697.50;5010781;28;20206;-62
2022/05/27 08:18:28;;;;;;;5.85;2.25;;;;;;;33.15;36.58;99689.72;5010510;28;20293;-61
2022/05/27 08:20:56;;;;;;;2.60;1.75;;;;;;;33.21;36.03;99696.16;5008213;28;20208;-62
2022/05/27 08:23:24;;;;;;;4.07;1.77;;;;;;;33.20;35.99;99690.00;5009045;28;20308;-62
2022/05/27 08:25:55;;;;;;;14.73;2.38;;;;;;;33.19;35.48;99690.19;5010606;28;20642;-61
2022/05/27 08:28:24;;;;;;;1.60;1.50;;;;;;;33.05;37.17;99683.84;5008429;28;20237;-62
2022/05/27 08:30:55;;;;;;;2.45;1.20;;;;;;;33.00;36.44;99675.59;5009143;28;20210;-62
2022/05/27 08:33:23;;;;;;;1.50;1.40;;;;;;;33.07;34.40;99681.81;5008543;28;20256;-63
2022/05/27 08:38:38;;;;;;;2.58;1.73;;;;;;;33.19;33.63;99684.88;5008350;28;20200;-62
2022/05/27 08:41:28;;;;;;;2.17;2.08;;;;;;;33.34;34.81;99679.56;5009306;28;20637;-62
2022/05/27 08:44:10;;;;;;;1.70;1.60;;;;;;;33.45;36.79;99684.38;5008129;28;20687;-62
2022/05/27 08:46:46;;;;;;;2.08;1.98;;;;;;;33.48;37.48;99676.03;5008227;28;20202;-62
2022/05/27 08:49:18;;;;;;;2.22;2.03;;;;;;;33.35;38.03;99667.88;5009504;28;20241;-62
2022/05/27 08:51:50;;;;;;;2.05;1.95;;;;;;;33.10;39.20;99670.03;5008914;28;20206;-62
2022/05/27 08:54:24;;;;;;;2.78;1.73;;;;;;;33.24;40.12;99670.03;5009360;28;20213;-62
2022/05/27 08:59:49;;;;;;;1.73;1.70;;;;;;;33.48;37.35;99668.06;4952954;28;20207;-62
2022/05/27 09:02:26;;;;;;;2.03;1.92;;;;;;;33.70;38.71;99659.16;5008683;28;20745;-62
2022/05/27 09:05:02;;;;;;;1.42;1.33;;;;;;;33.70;37.44;99661.81;5009021;28;20667;-62
2022/05/27 09:07:40;;;;;;;1.38;1.38;;;;;;;33.96;38.95;99659.41;5008598;28;20206;-62
2022/05/27 09:10:13;;;;;;;1.60;1.50;;;;;;;33.96;36.30;99655.94;5008320;28;20664;-62
2022/05/27 09:12:48;;;;;;;2.47;1.80;;;;;;;33.92;35.86;99639.53;5007943;28;20198;-61
2022/05/27 09:15:33;;;;;;;2.10;1.95;;;;;;;33.82;37.88;99649.66;5008962;28;20284;-61
2022/05/27 09:18:07;;;;;;;3.47;1.83;;;;;;;33.89;38.62;99645.25;5008931;28;20206;-62
2022/05/27 09:20:48;;;;;;;4.10;3.58;;;;;;;33.92;34.32;99641.38;5007824;28;20198;-62
2022/05/27 09:23:38;;;;;;;2.75;2.20;;;;;;;33.80;37.93;99635.72;5009290;28;20582;-62
2022/05/27 09:26:13;;;;;;;1.80;1.70;;;;;;;33.76;38.07;99634.47;5005697;28;20607;-62
2022/05/27 09:28:51;;;;;;;2.28;2.17;;;;;;;33.86;34.61;99624.34;5008146;28;20225;-63
2022/05/27 09:31:29;;;;;;;1.70;1.60;;;;;;;33.73;35.86;99614.38;5008154;28;20213;-62
2022/05/27 09:33:56;;;;;;;3.17;1.90;;;;;;;33.68;37.15;99611.47;5006857;28;22051;-63
2022/05/27 09:36:34;;;;;;;2.35;1.92;;;;;;;33.66;34.59;99605.53;5007612;28;20217;-62
2022/05/27 09:39:04;;;;;;;2.15;1.70;;;;;;;33.75;35.15;99606.22;5008092;28;20212;-63
2022/05/27 09:41:40;;;;;;;1.80;1.70;;;;;;;33.94;35.28;99589.59;5007971;28;20687;-63
2022/05/27 09:44:18;;;;;;;2.38;2.00;;;;;;;34.11;35.97;99601.66;5008457;28;20212;-63
2022/05/27 09:46:45;;;;;;;2.25;1.38;;;;;;;34.23;33.84;99602.78;5007360;28;20217;-63
2022/05/27 09:49:12;;;;;;;2.15;2.03;;;;;;;34.38;32.31;99604.53;5008658;28;20217;-63
2022/05/27 09:51:39;;;;;;;2.45;1.67;;;;;;;34.52;32.05;99598.25;5009068;28;20689;-63
2022/05/27 09:54:20;;;;;;;2.35;2.25;;;;;;;34.65;33.15;99595.72;5008778;28;20228;-62
2022/05/27 09:57:01;;;;;;;4.88;4.40;;;;;;;34.69;34.75;99583.66;5006465;28;20214;-62
2022/05/27 09:59:36;;;;;;;2.92;2.22;;;;;;;34.83;35.65;99589.88;5003894;28;20204;-63
2022/05/27 10:02:19;;;;;;;2.88;1.80;;;;;;;34.77;32.55;99591.47;5007678;28;20208;-62
2022/05/27 10:04:51;;;;;;;2.03;1.65;;;;;;;34.82;35.56;99577.56;5005614;28;20205;-61
2022/05/27 10:07:25;;;;;;;1.98;1.73;;;;;;;34.95;34.20;99583.78;5008645;28;20205;-61
2022/05/27 10:09:52;;;;;;;1.45;1.40;;;;;;;35.05;32.78;99573.59;5008655;28;20225;-61
2022/05/27 10:12:30;;;;;;;3.33;2.25;;;;;;;35.25;32.91;99568.38;5008494;28;20214;-61
2022/05/27 10:14:57;;;;;;;1.70;1.60;;;;;;;35.29;34.48;99565.06;5007871;28;20202;-62
2022/05/27 10:17:31;;;;;;;1.95;1.85;;;;;;;35.41;31.39;99567.16;5009028;28;20210;-62
2022/05/27 10:20:16;;;;;;;1.23;1.17;;;;;;;35.47;31.81;99550.34;5007532;28;20202;-61
2022/05/27 10:22:43;;;;;;;2.13;2.03;;;;;;;35.64;35.02;99563.13;5009566;28;20697;-62
2022/05/27 10:25:13;;;;;;;5.47;1.88;;;;;;;35.55;32.38;99555.47;5009371;28;20221;-63
2022/05/27 10:27:44;;;;;;;2.30;2.17;;;;;;;35.65;33.48;99545.28;5009185;28;20210;-62
2022/05/27 10:30:22;;;;;;;1.88;1.67;;;;;;;35.74;31.93;99541.38;5008540;28;20694;-62
2022/05/27 10:32:50;;;;;;;4.60;2.13;;;;;;;36.00;32.72;99536.03;5008517;28;20666;-63
2022/05/27 10:35:33;;;;;;;4.45;1.90;;;;;;;36.02;31.72;99543.84;5009049;28;20205;-62
2022/05/27 10:38:12;;;;;;;3.80;2.47;;;;;;;36.05;29.59;99527.44;5009553;28;20536;-63
2022/05/27 10:40:49;;;;;;;1.70;1.60;;;;;;;36.09;34.28;99534.81;5008721;28;20198;-62
2022/05/27 10:43:31;;;;;;;4.05;2.83;;;;;;;36.21;31.27;99527.84;5010074;28;20210;-62
2022/05/27 10:46:04;;;;;;;2.33;1.92;;;;;;;36.19;30.92;99524.53;5012261;28;20206;-62
2022/05/27 10:48:56;;;;;;;6.32;1.98;;;;;;;36.09;32.12;99523.34;5012942;28;20222;-62
2022/05/27 10:51:34;;;;;;;1.60;1.50;;;;;;;36.13;31.30;99509.38;5012704;28;20217;-62
2022/05/27 10:54:16;;;;;;;2.67;2.47;;;;;;;36.25;32.31;99521.03;5012560;28;20218;-62
2022/05/27 11:02:48;;;;;;;2.75;2.00;;;;;;;36.39;30.28;99508.47;5011510;28;20202;-62
2022/05/27 11:05:28;;;;;;;1.75;1.65;;;;;;;36.33;30.14;99499.47;5012525;28;20559;-62
2022/05/27 11:08:15;;;;;;;2.53;2.20;;;;;;;36.22;28.77;99497.44;5012319;28;20276;-62
2022/05/27 11:10:50;;;;;;;4.03;1.63;;;;;;;36.10;30.15;99493.75;5012195;28;20672;-62
2022/05/27 11:16:48;;;;;;;1.30;1.30;;;;;;;36.33;30.80;99494.13;5010990;28;20217;-61
2022/05/27 11:19:52;;;;;;;2.30;2.10;;;;;;;36.20;29.57;99488.00;5011766;28;20651;-62
2022/05/27 11:22:27;;;;;;;1.73;1.60;;;;;;;35.96;29.19;99481.47;5013104;28;20201;-62
2022/05/27 11:25:11;;;;;;;1.60;1.50;;;;;;;35.97;31.48;99477.75;5011975;28;20205;-63
2022/05/27 11:28:02;;;;;;;1.50;1.45;;;;;;;36.21;30.78;99479.78;5012260;28;20202;-63
2022/05/27 11:30:41;;;;;;;1.73;1.63;;;;;;;35.91;28.71;99477.75;5011805;28;20225;-62
2022/05/27 11:33:25;;;;;;;1.67;1.60;;;;;;;35.59;30.13;99474.91;5012080;28;20202;-64
2022/05/27 11:36:14;;;;;;;4.32;2.85;;;;;;;35.63;29.95;99477.97;5012569;28;20216;-64
2022/05/27 11:39:00;;;;;;;4.13;1.73;;;;;;;35.34;29.37;99470.34;5012152;28;20213;-63
2022/05/27 11:41:31;;;;;;;2.13;1.80;;;;;;;34.90;30.60;99462.88;5010782;28;20201;-63
2022/05/27 11:44:11;;;;;;;2.65;2.13;;;;;;;34.83;30.99;99467.34;5004308;28;20725;-64
2022/05/27 11:46:52;;;;;;;1.63;1.55;;;;;;;34.84;30.34;99459.13;5007724;28;20238;-62
2022/05/27 11:49:40;;;;;;;2.20;2.00;;;;;;;34.81;31.00;99454.22;5007708;28;20224;-63
2022/05/27 11:52:31;;;;;;;1.70;1.60;;;;;;;34.87;31.01;99444.59;5006567;28;20209;-61
2022/05/27 11:55:16;;;;;;;4.90;1.73;;;;;;;34.72;30.59;99450.91;5006099;28;20201;-62
2022/05/27 11:57:58;;;;;;;1.67;1.50;;;;;;;35.06;31.41;99436.63;5007228;28;20346;-61
2022/05/27 12:00:27;;;;;;;2.33;2.13;;;;;;;35.12;30.06;99441.19;5006646;28;20228;-61
2022/05/27 12:03:00;;;;;;;2.50;1.80;;;;;;;34.82;29.41;99431.88;5007818;28;20677;-63
2022/05/27 12:05:33;;;;;;;3.17;2.20;;;;;;;34.88;30.63;99432.91;5008248;28;20681;-61
2022/05/27 12:08:03;;;;;;;3.40;3.20;;;;;;;35.14;30.33;99428.50;5009378;28;20726;-62
2022/05/27 12:10:39;;;;;;;2.13;2.03;;;;;;;35.37;30.99;99427.28;5009297;28;20222;-62
2022/05/27 12:13:12;;;;;;;2.47;2.38;;;;;;;35.38;30.65;99423.59;5010251;28;20248;-62
2022/05/27 12:15:43;;;;;;;3.78;1.67;;;;;;;35.22;30.75;99422.94;5010842;28;20198;-61
2022/05/27 12:18:16;;;;;;;2.17;1.83;;;;;;;35.16;30.79;99422.94;5011649;28;20218;-62
2022/05/27 12:20:45;;;;;;;2.20;2.10;;;;;;;35.29;30.92;99421.13;5007619;28;20514;-62